Time;durP1;ratioP1;P1;durP2;ratioP2;P2;SDS_P1;SDS_P2;PMS_P1;PMS_P2;Temp;Humidity;BMP_temperature;BMP_pressure;BME280_temperature;BME280_humidity;BME280_pressure;Samples;Min_cycle;Max_cycle;Signal;HPM_P1;HPM_P2
2021/10/21 00:01:15;;;;;;;;;;;11.20;72.50;;;;;;5018514;28;89156;-57
2021/10/21 00:03:41;;;;;;;;;;;11.20;72.60;;;;;;5017804;28;89301;-58
2021/10/21 00:06:06;;;;;;;;;;;11.20;72.60;;;;;;5019576;28;87134;-57
2021/10/21 00:08:32;;;;;;;;;;;11.20;72.70;;;;;;5018707;28;89159;-57
2021/10/21 00:10:58;;;;;;;;;;;11.20;72.60;;;;;;5017432;28;87831;-57
2021/10/21 00:13:24;;;;;;;;;;;11.10;72.70;;;;;;5018425;28;87181;-57
2021/10/21 00:15:49;;;;;;;;;;;11.10;72.70;;;;;;5018525;28;87547;-57
2021/10/21 00:18:15;;;;;;;;;;;11.10;72.80;;;;;;5018925;28;88327;-57
2021/10/21 00:20:40;;;;;;;;;;;11.10;72.70;;;;;;5023603;28;86462;-58
2021/10/21 00:23:06;;;;;;;;;;;11.10;72.70;;;;;;5020724;28;89496;-57
2021/10/21 00:25:32;;;;;;;;;;;11.10;72.70;;;;;;5020404;28;87113;-57
2021/10/21 00:27:57;;;;;;;;;;;11.10;72.60;;;;;;5018814;28;89803;-57
2021/10/21 00:30:24;;;;;;;;;;;11.10;72.60;;;;;;5017129;28;87977;-58
2021/10/21 00:32:50;;;;;;;;;;;11.10;72.60;;;;;;5018639;28;87247;-57
2021/10/21 00:35:16;;;;;;;;;;;11.10;72.70;;;;;;5019529;28;88228;-57
2021/10/21 00:37:41;;;;;;;;;;;11.10;72.90;;;;;;5016463;28;87686;-57
2021/10/21 00:40:07;;;;;;;;;;;11.10;72.80;;;;;;5019514;28;87208;-57
2021/10/21 00:42:33;;;;;;;;;;;11.10;72.70;;;;;;5022123;28;87529;-57
2021/10/21 00:44:59;;;;;;;;;;;11.10;72.70;;;;;;5020235;28;86399;-57
2021/10/21 00:47:24;;;;;;;;;;;11.10;72.70;;;;;;5018267;28;88138;-57
2021/10/21 00:49:50;;;;;;;;;;;11.00;72.70;;;;;;5018175;28;89570;-57
2021/10/21 00:52:16;;;;;;;;;;;11.10;72.90;;;;;;5018441;28;89699;-57
2021/10/21 00:54:43;;;;;;;;;;;11.00;72.70;;;;;;5017219;28;88942;-57
2021/10/21 00:57:11;;;;;;;;;;;11.00;72.80;;;;;;5016242;28;87871;-57
2021/10/21 00:59:37;;;;;;;;;;;11.00;72.80;;;;;;5020598;28;87118;-57
2021/10/21 01:02:03;;;;;;;;;;;11.00;72.80;;;;;;5023114;28;89190;-57
2021/10/21 01:04:28;;;;;;;;;;;11.00;72.90;;;;;;5020702;28;87170;-58
2021/10/21 01:06:54;;;;;;;;;;;11.00;72.70;;;;;;5018090;28;87779;-57
2021/10/21 01:09:20;;;;;;;;;;;11.00;72.80;;;;;;5015809;28;89134;-57
2021/10/21 01:11:46;;;;;;;;;;;11.00;72.80;;;;;;5015898;28;88516;-57
2021/10/21 01:14:11;;;;;;;;;;;11.00;72.80;;;;;;5015842;28;88758;-57
2021/10/21 01:16:39;;;;;;;;;;;11.00;72.70;;;;;;5015057;28;88699;-57
2021/10/21 01:19:12;;;;;;;;;;;11.00;72.90;;;;;;5018466;28;87378;-57
2021/10/21 01:21:38;;;;;;;;;;;10.90;72.90;;;;;;5018829;28;87693;-57
2021/10/21 01:24:03;;;;;;;;;;;10.90;72.90;;;;;;5024496;28;88307;-58
2021/10/21 01:26:29;;;;;;;;;;;10.90;72.90;;;;;;5022933;28;87857;-57
2021/10/21 01:28:54;;;;;;;;;;;10.90;72.90;;;;;;5019261;28;88166;-57
2021/10/21 01:31:20;;;;;;;;;;;10.90;72.90;;;;;;5020290;28;87157;-57
2021/10/21 01:33:45;;;;;;;;;;;10.90;72.90;;;;;;5022066;28;87076;-57
2021/10/21 01:36:12;;;;;;;;;;;10.90;72.90;;;;;;5022089;28;87153;-57
2021/10/21 01:38:37;;;;;;;;;;;10.90;72.90;;;;;;5021323;28;87162;-57
2021/10/21 01:41:03;;;;;;;;;;;10.90;72.80;;;;;;5022177;28;88112;-57
2021/10/21 01:43:28;;;;;;;;;;;10.90;72.80;;;;;;5023238;28;88750;-57
2021/10/21 01:45:54;;;;;;;;;;;10.90;72.90;;;;;;5023297;28;88063;-57
2021/10/21 01:48:20;;;;;;;;;;;10.80;72.90;;;;;;5018533;28;89303;-57
2021/10/21 01:50:45;;;;;;;;;;;10.80;73.00;;;;;;5018783;28;87238;-57
2021/10/21 01:53:11;;;;;;;;;;;10.80;73.00;;;;;;5020072;28;88586;-57
2021/10/21 01:55:37;;;;;;;;;;;10.80;73.00;;;;;;5020321;28;88080;-57
2021/10/21 01:58:03;;;;;;;;;;;10.90;73.20;;;;;;5021991;28;86407;-58
2021/10/21 02:00:28;;;;;;;;;;;10.80;73.20;;;;;;5022703;28;87220;-58
2021/10/21 02:02:54;;;;;;;;;;;10.80;73.20;;;;;;5022745;28;88623;-57
2021/10/21 02:05:20;;;;;;;;;;;10.80;73.10;;;;;;5018932;28;89095;-57
2021/10/21 02:07:45;;;;;;;;;;;10.80;73.00;;;;;;5021299;28;88838;-57
2021/10/21 02:10:13;;;;;;;;;;;10.80;72.90;;;;;;5018535;28;87146;-57
2021/10/21 02:12:38;;;;;;;;;;;10.80;72.90;;;;;;5020942;28;88414;-58
2021/10/21 02:15:04;;;;;;;;;;;10.80;72.90;;;;;;5018369;28;87872;-57
2021/10/21 02:17:30;;;;;;;;;;;10.80;73.00;;;;;;5018413;28;87148;-57
2021/10/21 02:19:55;;;;;;;;;;;10.80;73.10;;;;;;5019054;28;89106;-57
2021/10/21 02:22:21;;;;;;;;;;;10.80;73.10;;;;;;5020539;28;86794;-57
2021/10/21 02:24:47;;;;;;;;;;;10.80;73.10;;;;;;5020797;28;87224;-57
2021/10/21 02:27:13;;;;;;;;;;;10.70;73.10;;;;;;5019439;28;88953;-57
2021/10/21 02:29:38;;;;;;;;;;;10.70;73.20;;;;;;5022030;28;88433;-57
2021/10/21 02:32:04;;;;;;;;;;;10.70;73.20;;;;;;5021187;28;87989;-57
2021/10/21 02:34:30;;;;;;;;;;;10.70;73.20;;;;;;5021126;28;90544;-57
2021/10/21 02:36:55;;;;;;;;;;;10.70;73.20;;;;;;5021770;28;87140;-57
2021/10/21 02:39:21;;;;;;;;;;;10.70;73.20;;;;;;5023050;28;87622;-57
2021/10/21 02:41:46;;;;;;;;;;;10.70;73.90;;;;;;5019544;28;88332;-58
2021/10/21 02:44:12;;;;;;;;;;;10.70;73.30;;;;;;5018670;28;87111;-57
2021/10/21 02:46:37;;;;;;;;;;;10.70;73.20;;;;;;5020421;28;86846;-57
2021/10/21 02:49:03;;;;;;;;;;;10.70;73.30;;;;;;5020556;28;90251;-57
2021/10/21 02:51:29;;;;;;;;;;;10.70;73.30;;;;;;5024557;28;87143;-57
2021/10/21 02:53:54;;;;;;;;;;;10.60;73.30;;;;;;5021450;28;89112;-57
2021/10/21 02:56:20;;;;;;;;;;;10.60;73.30;;;;;;5022669;28;88641;-57
2021/10/21 02:58:45;;;;;;;;;;;10.60;73.20;;;;;;5019208;28;88620;-57
2021/10/21 03:01:11;;;;;;;;;;;10.60;73.20;;;;;;5017994;28;89301;-57
2021/10/21 03:03:36;;;;;;;;;;;10.60;73.30;;;;;;5019122;28;87186;-57
2021/10/21 03:06:02;;;;;;;;;;;10.60;73.40;;;;;;5019312;28;88085;-57
2021/10/21 03:08:27;;;;;;;;;;;10.60;73.30;;;;;;5020295;28;87554;-57
2021/10/21 03:10:53;;;;;;;;;;;10.60;73.20;;;;;;5025230;28;86430;-57
2021/10/21 03:13:18;;;;;;;;;;;10.60;73.40;;;;;;5020716;28;88320;-57
2021/10/21 03:15:44;;;;;;;;;;;10.60;73.20;;;;;;5017654;28;87152;-60
2021/10/21 03:18:09;;;;;;;;;;;10.60;73.20;;;;;;5017984;28;88737;-57
2021/10/21 03:20:35;;;;;;;;;;;10.60;73.30;;;;;;5019589;28;88594;-57
2021/10/21 03:23:01;;;;;;;;;;;10.60;73.30;;;;;;5019743;28;87124;-57
2021/10/21 03:25:27;;;;;;;;;;;10.60;73.40;;;;;;5019416;28;88539;-57
2021/10/21 03:27:53;;;;;;;;;;;10.60;73.30;;;;;;5020259;28;88148;-57
2021/10/21 03:30:18;;;;;;;;;;;10.60;73.30;;;;;;5021931;28;87201;-57
2021/10/21 03:32:44;;;;;;;;;;;10.60;73.30;;;;;;5022614;28;87942;-57
2021/10/21 03:35:10;;;;;;;;;;;10.60;73.30;;;;;;5018196;28;86746;-57
2021/10/21 03:37:35;;;;;;;;;;;10.60;73.40;;;;;;5018148;28;87331;-57
2021/10/21 03:40:01;;;;;;;;;;;10.50;73.40;;;;;;5018793;28;87801;-57
2021/10/21 03:42:27;;;;;;;;;;;10.60;73.50;;;;;;5019723;28;88120;-57
2021/10/21 03:44:56;;;;;;;;;;;10.50;73.50;;;;;;5020309;28;89488;-57
2021/10/21 03:47:22;;;;;;;;;;;10.50;73.50;;;;;;5016295;28;89882;-57
2021/10/21 03:49:50;;;;;;;;;;;10.50;73.40;;;;;;5018025;28;87153;-57
2021/10/21 03:52:16;;;;;;;;;;;10.50;73.30;;;;;;5021354;28;88814;-57
2021/10/21 03:54:42;;;;;;;;;;;10.50;73.30;;;;;;5022098;28;88248;-57
2021/10/21 03:57:07;;;;;;;;;;;10.60;73.40;;;;;;5017235;28;87628;-57
2021/10/21 03:59:33;;;;;;;;;;;10.50;73.50;;;;;;5018590;28;88078;-57
2021/10/21 04:01:58;;;;;;;;;;;10.50;73.50;;;;;;5019659;28;87254;-57
2021/10/21 04:04:24;;;;;;;;;;;10.50;73.50;;;;;;5020602;28;88832;-57
2021/10/21 04:06:49;;;;;;;;;;;10.50;73.50;;;;;;5019903;28;89642;-60
2021/10/21 04:09:15;;;;;;;;;;;10.50;73.40;;;;;;5017600;28;88973;-60
2021/10/21 04:11:41;;;;;;;;;;;10.40;73.50;;;;;;5017591;28;87192;-60
2021/10/21 04:14:06;;;;;;;;;;;10.50;73.40;;;;;;5018194;28;89892;-60
2021/10/21 04:16:32;;;;;;;;;;;10.40;73.30;;;;;;5022756;28;87168;-60
2021/10/21 04:18:57;;;;;;;;;;;10.40;73.30;;;;;;5020892;28;88768;-60
2021/10/21 04:21:23;;;;;;;;;;;10.40;73.30;;;;;;5018846;28;88743;-60
2021/10/21 04:23:48;;;;;;;;;;;10.40;73.20;;;;;;5016732;28;88563;-60
2021/10/21 04:26:15;;;;;;;;;;;10.40;73.30;;;;;;5017303;28;88140;-60
2021/10/21 04:28:40;;;;;;;;;;;10.40;73.30;;;;;;5016432;28;87162;-59
2021/10/21 04:31:06;;;;;;;;;;;10.40;73.40;;;;;;5016591;28;88091;-60
2021/10/21 04:33:32;;;;;;;;;;;10.40;73.40;;;;;;5017937;28;89564;-60
2021/10/21 04:35:57;;;;;;;;;;;10.40;73.20;;;;;;5018826;28;87231;-60
2021/10/21 04:38:23;;;;;;;;;;;10.30;73.40;;;;;;5023161;28;87360;-60
2021/10/21 04:40:48;;;;;;;;;;;10.30;73.30;;;;;;5019248;28;88369;-60
2021/10/21 04:43:14;;;;;;;;;;;10.30;73.30;;;;;;5016196;28;88625;-60
2021/10/21 04:45:39;;;;;;;;;;;10.30;73.30;;;;;;5016933;28;88894;-60
2021/10/21 04:48:05;;;;;;;;;;;10.30;73.30;;;;;;5018770;28;86411;-60
2021/10/21 04:50:31;;;;;;;;;;;10.30;73.10;;;;;;5019800;28;87149;-60
2021/10/21 04:52:56;;;;;;;;;;;10.30;73.30;;;;;;5020646;28;87747;-60
2021/10/21 04:55:25;;;;;;;;;;;10.20;73.30;;;;;;5020201;28;88963;-60
2021/10/21 04:57:51;;;;;;;;;;;10.30;73.30;;;;;;5018637;28;89586;-60
2021/10/21 05:00:17;;;;;;;;;;;10.30;73.30;;;;;;5017147;28;87218;-60
2021/10/21 05:02:43;;;;;;;;;;;10.20;73.20;;;;;;5016859;28;88682;-60
2021/10/21 05:05:09;;;;;;;;;;;10.20;73.30;;;;;;5015573;28;87455;-60
2021/10/21 05:07:35;;;;;;;;;;;10.20;73.30;;;;;;5020069;28;88028;-60
2021/10/21 05:10:01;;;;;;;;;;;10.20;73.40;;;;;;5019640;28;87128;-59
2021/10/21 05:12:26;;;;;;;;;;;10.20;73.30;;;;;;5019300;28;87842;-60
2021/10/21 05:14:56;;;;;;;;;;;10.20;73.20;;;;;;5019769;28;87182;-60
2021/10/21 05:17:21;;;;;;;;;;;10.20;73.20;;;;;;5015898;28;89362;-60
2021/10/21 05:19:47;;;;;;;;;;;10.20;73.20;;;;;;5018518;28;89117;-59
2021/10/21 05:22:13;;;;;;;;;;;10.20;73.30;;;;;;5017856;28;87849;-60
2021/10/21 05:24:38;;;;;;;;;;;10.20;73.00;;;;;;5018359;28;89547;-59
2021/10/21 05:27:04;;;;;;;;;;;10.20;73.00;;;;;;5019420;28;87171;-60
2021/10/21 05:29:29;;;;;;;;;;;10.20;73.00;;;;;;5018778;28;89179;-60
2021/10/21 05:31:55;;;;;;;;;;;10.20;73.20;;;;;;5019494;28;87632;-59
2021/10/21 05:34:21;;;;;;;;;;;10.20;73.20;;;;;;5020070;28;87316;-59
2021/10/21 05:36:48;;;;;;;;;;;10.20;73.00;;;;;;5017367;28;88187;-60
2021/10/21 05:39:14;;;;;;;;;;;10.10;73.10;;;;;;5019451;28;89179;-59
2021/10/21 05:41:39;;;;;;;;;;;10.20;73.10;;;;;;5023467;28;87141;-60
2021/10/21 05:44:05;;;;;;;;;;;10.10;72.90;;;;;;5016205;28;88759;-60
2021/10/21 05:46:30;;;;;;;;;;;10.20;73.00;;;;;;5015991;28;87286;-60
2021/10/21 05:48:56;;;;;;;;;;;10.20;73.00;;;;;;5016567;28;87661;-59
2021/10/21 05:51:21;;;;;;;;;;;10.20;73.00;;;;;;5016551;28;88179;-59
2021/10/21 05:53:49;;;;;;;;;;;10.20;73.00;;;;;;5017001;28;87227;-60
2021/10/21 05:56:14;;;;;;;;;;;10.20;72.90;;;;;;5015495;28;88991;-60
2021/10/21 05:58:40;;;;;;;;;;;10.20;72.80;;;;;;5016264;28;88114;-60
2021/10/21 06:01:06;;;;;;;;;;;10.20;72.70;;;;;;5018226;28;86462;-57
2021/10/21 06:03:36;;;;;;;;;;;10.20;72.60;;;;;;5020801;28;87145;-57
2021/10/21 06:06:02;;;;;;;;;;;10.20;72.70;;;;;;5018687;28;87929;-57
2021/10/21 06:08:28;;;;;;;;;;;10.20;72.80;;;;;;5018705;28;89730;-57
2021/10/21 06:10:53;;;;;;;;;;;10.20;72.80;;;;;;5019049;28;88769;-57
2021/10/21 06:13:19;;;;;;;;;;;10.20;72.80;;;;;;5019224;28;87204;-57
2021/10/21 06:15:44;;;;;;;;;;;10.20;72.60;;;;;;5020647;28;87131;-57
2021/10/21 06:18:13;;;;;;;;;;;10.20;72.80;;;;;;5021410;28;87950;-60
2021/10/21 06:20:38;;;;;;;;;;;10.20;72.80;;;;;;5019181;28;87154;-57
2021/10/21 06:23:04;;;;;;;;;;;10.20;72.80;;;;;;5020282;28;87663;-57
2021/10/21 06:25:29;;;;;;;;;;;10.10;72.80;;;;;;5024380;28;86936;-57
2021/10/21 06:27:56;;;;;;;;;;;10.20;72.70;;;;;;5022844;28;87261;-57
2021/10/21 06:30:21;;;;;;;;;;;10.20;72.70;;;;;;5022497;28;88640;-57
2021/10/21 06:32:47;;;;;;;;;;;10.20;72.80;;;;;;5019654;28;89649;-57
2021/10/21 06:35:15;;;;;;;;;;;10.20;72.70;;;;;;5018279;28;88395;-57
2021/10/21 06:37:44;;;;;;;;;;;10.20;72.70;;;;;;5022050;28;89813;-57
2021/10/21 06:40:09;;;;;;;;;;;10.20;72.70;;;;;;5019857;28;87195;-57
2021/10/21 06:42:35;;;;;;;;;;;10.20;72.80;;;;;;5020699;28;87140;-57
2021/10/21 06:45:00;;;;;;;;;;;10.20;72.70;;;;;;5021491;28;88484;-57
2021/10/21 06:47:26;;;;;;;;;;;10.20;72.90;;;;;;5025311;28;87335;-57
2021/10/21 06:49:52;;;;;;;;;;;10.20;72.90;;;;;;5019262;28;87868;-57
2021/10/21 06:52:20;;;;;;;;;;;10.20;73.00;;;;;;5018546;28;87127;-57
2021/10/21 06:54:46;;;;;;;;;;;10.20;73.00;;;;;;5021979;28;89010;-57
2021/10/21 06:57:12;;;;;;;;;;;10.20;73.00;;;;;;5020671;28;90197;-57
2021/10/21 06:59:38;;;;;;;;;;;10.20;73.00;;;;;;5022129;28;87200;-57
2021/10/21 07:02:03;;;;;;;;;;;10.20;73.00;;;;;;5020791;28;88831;-59
2021/10/21 07:04:29;;;;;;;;;;;10.20;73.00;;;;;;5017493;28;88441;-59
2021/10/21 07:06:57;;;;;;;;;;;10.20;73.10;;;;;;5021559;28;87130;-59
2021/10/21 07:09:22;;;;;;;;;;;10.20;73.20;;;;;;5018645;28;88949;-57
2021/10/21 07:11:48;;;;;;;;;;;10.10;73.00;;;;;;5018076;28;87197;-57
2021/10/21 07:14:13;;;;;;;;;;;10.20;73.20;;;;;;5019591;28;87136;-57
2021/10/21 07:16:39;;;;;;;;;;;10.20;73.30;;;;;;5018294;28;87713;-57
2021/10/21 07:19:05;;;;;;;;;;;10.20;73.20;;;;;;5019173;28;87206;-57
2021/10/21 07:21:31;;;;;;;;;;;10.20;73.20;;;;;;5016787;28;89212;-57
2021/10/21 07:23:56;;;;;;;;;;;10.20;73.20;;;;;;5017356;28;87446;-57
2021/10/21 07:26:22;;;;;;;;;;;10.20;73.30;;;;;;5018921;28;87161;-57
2021/10/21 07:28:47;;;;;;;;;;;10.20;73.30;;;;;;5022584;28;89045;-57
2021/10/21 07:31:16;;;;;;;;;;;10.20;73.40;;;;;;5021060;28;87136;-57
2021/10/21 07:33:42;;;;;;;;;;;10.20;73.40;;;;;;5018760;28;88927;-57
2021/10/21 07:36:08;;;;;;;;;;;10.20;73.50;;;;;;5018700;28;88045;-57
2021/10/21 07:38:33;;;;;;;;;;;10.20;73.70;;;;;;5020422;28;86387;-57
2021/10/21 07:40:59;;;;;;;;;;;10.20;73.60;;;;;;5021061;28;87131;-57
2021/10/21 07:43:24;;;;;;;;;;;10.20;73.40;;;;;;5021328;28;88172;-57
2021/10/21 07:45:50;;;;;;;;;;;10.20;73.50;;;;;;5017637;28;88288;-57
2021/10/21 07:48:16;;;;;;;;;;;10.20;73.60;;;;;;5017629;28;88423;-57
2021/10/21 07:50:41;;;;;;;;;;;10.20;73.50;;;;;;5021270;28;87155;-57
2021/10/21 07:53:07;;;;;;;;;;;10.20;73.70;;;;;;5019620;28;89009;-57
2021/10/21 07:55:36;;;;;;;;;;;10.20;73.60;;;;;;5020059;28;89997;-57
2021/10/21 07:58:03;;;;;;;;;;;10.20;73.60;;;;;;5017742;28;87222;-57
2021/10/21 08:00:28;;;;;;;;;;;10.30;73.80;;;;;;5016869;28;89005;-57
2021/10/21 08:02:54;;;;;;;;;;;10.30;73.70;;;;;;5017919;28;87336;-57
2021/10/21 08:05:20;;;;;;;;;;;10.30;73.70;;;;;;5018531;28;87181;-57
2021/10/21 08:07:46;;;;;;;;;;;10.30;73.50;;;;;;5019580;28;87247;-57
2021/10/21 08:10:12;;;;;;;;;;;10.30;73.50;;;;;;5017314;28;90353;-57
2021/10/21 08:12:38;;;;;;;;;;;10.30;73.70;;;;;;5020495;28;87149;-58
2021/10/21 08:15:05;;;;;;;;;;;10.30;73.60;;;;;;5017181;28;88968;-57
2021/10/21 08:17:31;;;;;;;;;;;10.30;73.60;;;;;;5018160;28;88089;-57
2021/10/21 08:19:57;;;;;;;;;;;10.30;73.60;;;;;;5020710;28;87616;-57
2021/10/21 08:22:22;;;;;;;;;;;10.30;73.60;;;;;;5020179;28;87783;-57
2021/10/21 08:24:48;;;;;;;;;;;10.30;73.70;;;;;;5020443;28;88559;-57
2021/10/21 08:27:14;;;;;;;;;;;10.30;73.70;;;;;;5017896;28;87630;-57
2021/10/21 08:29:39;;;;;;;;;;;10.30;73.70;;;;;;5016695;28;88080;-57
2021/10/21 08:32:07;;;;;;;;;;;10.30;73.70;;;;;;5017843;28;87124;-57
2021/10/21 08:34:33;;;;;;;;;;;10.30;73.80;;;;;;5018236;28;88165;-57
2021/10/21 08:36:59;;;;;;;;;;;10.30;73.70;;;;;;5016961;28;87140;-57
2021/10/21 08:39:24;;;;;;;;;;;10.30;73.90;;;;;;5017925;28;87656;-57
2021/10/21 08:41:50;;;;;;;;;;;10.30;73.80;;;;;;5018284;28;90166;-58
2021/10/21 08:44:16;;;;;;;;;;;10.30;73.70;;;;;;5019918;28;87141;-58
2021/10/21 08:46:43;;;;;;;;;;;10.30;73.80;;;;;;5021213;28;87232;-58
2021/10/21 08:49:09;;;;;;;;;;;10.30;73.90;;;;;;5019195;28;89562;-58
2021/10/21 08:51:34;;;;;;;;;;;10.30;74.00;;;;;;5020647;28;86430;-58
2021/10/21 08:54:02;;;;;;;;;;;10.30;73.90;;;;;;5019040;28;88010;-58
2021/10/21 08:56:27;;;;;;;;;;;10.30;73.90;;;;;;5022971;28;88326;-58
2021/10/21 08:58:56;;;;;;;;;;;10.40;73.80;;;;;;5018305;28;89057;-58
2021/10/21 09:01:31;;;;;;;;;;;10.40;73.70;;;;;;5017879;28;87964;-58
2021/10/21 09:04:25;;;;;;;;;;;10.40;73.70;;;;;;5020019;28;87218;-58
2021/10/21 09:09:20;;;;;;;;;;;10.40;73.80;;;;;;5019722;28;87679;-58
2021/10/21 09:11:46;;;;;;;;;;;10.40;73.70;;;;;;5020832;28;87275;-58
2021/10/21 09:14:13;;;;;;;;;;;10.40;73.80;;;;;;5020684;28;87569;-58
2021/10/21 09:16:41;;;;;;;;;;;10.40;73.50;;;;;;5023229;28;86837;-58
2021/10/21 09:19:10;;;;;;;;;;;10.40;73.50;;;;;;5015629;28;87640;-58
2021/10/21 09:21:37;;;;;;;;;;;10.40;73.50;;;;;;5017987;28;87663;-58
2021/10/21 09:24:21;;;;;;;;;;;10.40;73.80;;;;;;5017356;28;88166;-58
2021/10/21 09:27:03;;;;;;;;;;;10.40;73.70;;;;;;5017812;28;89814;-58
2021/10/21 09:29:29;;;;;;;;;;;10.40;73.60;;;;;;5018391;28;88747;-58
2021/10/21 09:32:15;;;;;;;;;;;10.50;73.50;;;;;;5016827;28;87441;-59
2021/10/21 09:34:51;;;;;;;;;;;10.50;73.70;;;;;;5017095;28;88595;-58
2021/10/21 09:37:17;;;;;;;;;;;10.50;73.50;;;;;;5016206;28;89281;-58
2021/10/21 09:39:44;;;;;;;;;;;10.50;73.60;;;;;;5018818;28;87189;-58
2021/10/21 09:42:10;;;;;;;;;;;10.50;73.50;;;;;;5019323;28;88567;-58
2021/10/21 09:44:36;;;;;;;;;;;10.50;73.50;;;;;;5019200;28;88613;-58
2021/10/21 09:47:34;;;;;;;;;;;10.50;73.60;;;;;;5019177;28;88740;-58
2021/10/21 09:50:06;;;;;;;;;;;10.50;73.50;;;;;;5008277;28;89148;-58
2021/10/21 09:52:32;;;;;;;;;;;10.50;73.40;;;;;;5023185;28;87130;-58
2021/10/21 09:54:57;;;;;;;;;;;10.50;73.40;;;;;;5021202;28;88556;-58
2021/10/21 09:57:28;;;;;;;;;;;10.50;73.40;;;;;;5018790;28;88416;-58
2021/10/21 10:00:20;;;;;;;;;;;10.60;73.60;;;;;;5020204;28;87210;-58
2021/10/21 10:02:45;;;;;;;;;;;10.50;73.40;;;;;;5021237;27;88737;-58
2021/10/21 10:05:15;;;;;;;;;;;10.60;73.50;;;;;;5019950;28;87089;-59
2021/10/21 10:07:40;;;;;;;;;;;10.60;73.40;;;;;;5023010;28;88990;-58
2021/10/21 10:10:06;;;;;;;;;;;10.60;73.40;;;;;;5022690;28;88065;-59
2021/10/21 10:12:35;;;;;;;;;;;10.60;73.50;;;;;;5022839;28;87238;-58
2021/10/21 10:15:02;;;;;;;;;;;10.70;73.50;;;;;;5018387;28;89094;-59
2021/10/21 10:17:29;;;;;;;;;;;10.70;73.50;;;;;;5019538;28;88322;-58
2021/10/21 10:19:55;;;;;;;;;;;10.70;73.70;;;;;;5021983;28;87145;-58
2021/10/21 10:22:24;;;;;;;;;;;10.70;73.60;;;;;;5022076;28;87329;-58
2021/10/21 10:24:50;;;;;;;;;;;10.70;73.70;;;;;;5022356;28;88798;-59
2021/10/21 10:27:20;;;;;;;;;;;10.70;74.10;;;;;;5021244;28;88930;-58
2021/10/21 10:29:46;;;;;;;;;;;10.70;74.00;;;;;;5018085;28;88127;-59
2021/10/21 10:32:29;;;;;;;;;;;10.70;74.00;;;;;;5018704;28;86815;-58
2021/10/21 10:34:54;;;;;;;;;;;10.80;73.90;;;;;;5021123;28;88129;-58
2021/10/21 10:37:20;;;;;;;;;;;10.80;73.90;;;;;;5019895;28;89583;-58
2021/10/21 10:39:50;;;;;;;;;;;10.80;73.90;;;;;;5020211;28;88162;-58
2021/10/21 10:42:35;;;;;;;;;;;10.80;74.10;;;;;;5022404;28;88200;-58
2021/10/21 10:45:03;;;;;;;;;;;10.80;74.00;;;;;;5014106;28;88476;-58
2021/10/21 10:47:40;;;;;;;;;;;10.80;73.90;;;;;;5024277;28;87235;-62
2021/10/21 10:50:07;;;;;;;;;;;10.80;76.00;;;;;;5020181;28;87601;-59
2021/10/21 10:52:53;;;;;;;;;;;10.90;77.00;;;;;;5019862;28;87149;-64
2021/10/21 10:55:19;;;;;;;;;;;10.90;76.90;;;;;;5020345;27;87509;-56
2021/10/21 10:57:45;;;;;;;;;;;11.10;78.30;;;;;;5019551;28;88411;-52
2021/10/21 11:00:29;;;;;;;;;;;11.30;78.10;;;;;;5020648;28;87123;-60
2021/10/21 11:02:58;;;;;;;;;;;11.20;77.40;;;;;;5020650;28;88105;-58
2021/10/21 11:05:43;;;;;;;;;;;11.20;77.30;;;;;;5017269;28;89035;-56
2021/10/21 11:08:10;;;;;;;;;;;11.40;79.00;;;;;;5017714;28;87204;-59
2021/10/21 11:10:37;;;;;;;;;;;11.70;78.40;;;;;;5024604;28;87846;-50
2021/10/21 11:13:17;;;;;;;;;;;11.80;77.30;;;;;;5021792;28;87146;-56
2021/10/21 11:15:43;;;;;;;;;;;11.80;77.00;;;;;;5018946;28;89039;-56
2021/10/21 11:18:08;;;;;;;;;;;11.80;76.80;;;;;;5017193;28;89818;-62
2021/10/21 11:20:34;;;;;;;;;;;11.90;77.20;;;;;;5018630;28;87151;-54
2021/10/21 11:23:04;;;;;;;;;;;12.00;77.50;;;;;;5020490;28;87119;-59
2021/10/21 11:25:30;;;;;;;;;;;12.00;76.90;;;;;;5020579;28;89831;-51
2021/10/21 11:27:56;;;;;;;;;;;12.20;76.60;;;;;;5020502;28;87196;-57
2021/10/21 11:30:24;;;;;;;;;;;12.20;76.60;;;;;;5021704;28;88151;-57
2021/10/21 11:32:50;;;;;;;;;;;12.20;76.40;;;;;;5017277;28;87190;-58
2021/10/21 11:35:17;;;;;;;;;;;12.30;76.50;;;;;;5021774;28;88499;-52
2021/10/21 11:37:48;;;;;;;;;;;12.30;76.10;;;;;;5018931;28;89647;-51
2021/10/21 11:40:17;;;;;;;;;;;12.40;75.90;;;;;;5019574;28;87133;-63
2021/10/21 11:43:08;;;;;;;;;;;12.50;75.70;;;;;;5020995;28;88826;-62
2021/10/21 11:45:36;;;;;;;;;;;12.50;75.60;;;;;;5018719;27;90123;-60
2021/10/21 11:48:03;;;;;;;;;;;12.50;75.50;;;;;;5017711;28;86458;-59
2021/10/21 11:50:36;;;;;;;;;;;12.50;75.10;;;;;;5021650;28;87188;-60
2021/10/21 11:53:02;;;;;;;;;;;12.60;74.50;;;;;;5021346;28;89508;-59
2021/10/21 11:55:29;;;;;;;;;;;12.60;73.60;;;;;;5018282;28;88822;-60
2021/10/21 11:57:55;;;;;;;;;;;12.70;74.70;;;;;;5016631;28;87749;-60
2021/10/21 12:00:22;;;;;;;;;;;12.60;73.90;;;;;;5020175;28;88436;-60
2021/10/21 12:03:06;;;;;;;;;;;12.70;73.70;;;;;;5020745;28;88569;-59
2021/10/21 12:05:40;;;;;;;;;;;12.80;73.80;;;;;;5019883;28;88149;-61
2021/10/21 12:08:06;;;;;;;;;;;12.80;74.20;;;;;;5016363;28;88495;-54
2021/10/21 12:10:33;;;;;;;;;;;13.00;73.80;;;;;;5021545;28;88932;-54
2021/10/21 12:12:59;;;;;;;;;;;12.90;72.10;;;;;;5020398;28;89312;-53
2021/10/21 12:15:26;;;;;;;;;;;12.90;72.10;;;;;;5023341;28;87157;-54
2021/10/21 12:17:56;;;;;;;;;;;13.00;71.40;;;;;;5017672;28;90082;-52
2021/10/21 12:20:38;;;;;;;;;;;13.00;70.90;;;;;;5017461;28;88140;-50
2021/10/21 12:23:26;;;;;;;;;;;12.90;71.80;;;;;;5016750;28;89985;-49
2021/10/21 12:25:53;;;;;;;;;;;12.90;72.00;;;;;;5019769;28;89696;-52
2021/10/21 12:28:19;;;;;;;;;;;12.90;71.80;;;;;;5019942;28;87126;-53
2021/10/21 12:30:45;;;;;;;;;;;12.80;71.20;;;;;;5020375;28;89010;-49
2021/10/21 12:33:14;;;;;;;;;;;12.90;71.10;;;;;;5020089;28;88181;-45
2021/10/21 12:36:16;;;;;;;;;;;13.10;70.30;;;;;;5018709;28;88011;-49
2021/10/21 12:38:42;;;;;;;;;;;13.20;70.90;;;;;;5011390;28;89000;-51
2021/10/21 12:41:07;;;;;;;;;;;13.30;70.80;;;;;;5019839;28;88712;-48
2021/10/21 12:43:33;;;;;;;;;;;13.40;71.10;;;;;;5019992;28;87991;-45
2021/10/21 12:46:01;;;;;;;;;;;13.50;70.50;;;;;;5015702;28;90569;-56
2021/10/21 12:48:37;;;;;;;;;;;13.50;69.60;;;;;;5018610;28;87156;-48
2021/10/21 12:51:07;;;;;;;;;;;13.50;68.50;;;;;;5017721;28;89199;-50
2021/10/21 12:53:32;;;;;;;;;;;13.50;69.30;;;;;;5017772;28;87669;-48
2021/10/21 12:56:16;;;;;;;;;;;13.60;68.60;;;;;;5018965;28;87197;-52
2021/10/21 12:58:41;;;;;;;;;;;13.60;68.50;;;;;;5017755;28;88712;-50
2021/10/21 13:01:07;;;;;;;;;;;13.60;68.60;;;;;;5023698;28;88518;-50
2021/10/21 13:03:43;;;;;;;;;;;13.70;69.80;;;;;;5020720;28;87556;-51
2021/10/21 13:06:09;;;;;;;;;;;13.70;70.20;;;;;;5018266;28;88312;-47
2021/10/21 13:08:35;;;;;;;;;;;13.80;70.60;;;;;;5016818;28;87146;-48
2021/10/21 13:11:02;;;;;;;;;;;13.80;70.40;;;;;;5015427;28;89196;-52
2021/10/21 13:13:34;;;;;;;;;;;13.70;70.50;;;;;;5019580;28;88077;-49
2021/10/21 13:16:01;;;;;;;;;;;13.60;70.90;;;;;;5020203;28;87153;-51
2021/10/21 13:18:27;;;;;;;;;;;13.60;71.20;;;;;;5018817;28;89396;-46
2021/10/21 13:20:52;;;;;;;;;;;13.70;72.10;;;;;;5022769;28;88218;-51
2021/10/21 13:23:18;;;;;;;;;;;13.70;71.80;;;;;;5026051;28;87115;-47
2021/10/21 13:25:45;;;;;;;;;;;13.70;72.10;;;;;;5023691;28;88713;-49
2021/10/21 13:28:11;;;;;;;;;;;13.80;72.00;;;;;;5024186;28;86397;-56
2021/10/21 13:30:36;;;;;;;;;;;13.90;71.90;;;;;;5023872;28;87282;-60
2021/10/21 13:33:02;;;;;;;;;;;13.90;71.80;;;;;;5055715;27;89980;-57
2021/10/21 13:35:27;;;;;;;;;;;13.90;71.30;;;;;;5023196;28;88229;-49
2021/10/21 13:37:54;;;;;;;;;;;14.00;70.70;;;;;;5020975;28;89749;-52
2021/10/21 13:40:20;;;;;;;;;;;14.10;71.10;;;;;;5022791;28;89689;-59
2021/10/21 13:42:45;;;;;;;;;;;14.00;71.00;;;;;;5025874;28;87257;-61
2021/10/21 13:45:11;;;;;;;;;;;14.00;70.80;;;;;;5023414;28;88765;-60
2021/10/21 13:47:37;;;;;;;;;;;13.90;69.90;;;;;;5022932;28;88739;-61
2021/10/21 13:50:02;;;;;;;;;;;13.90;69.40;;;;;;5023388;28;87260;-58
2021/10/21 13:52:28;;;;;;;;;;;13.90;68.90;;;;;;5022484;28;86908;-58
2021/10/21 13:54:53;;;;;;;;;;;13.80;69.90;;;;;;5021749;28;87160;-58
2021/10/21 13:57:23;;;;;;;;;;;13.80;70.30;;;;;;5020856;28;87888;-59
2021/10/21 13:59:51;;;;;;;;;;;13.70;70.60;;;;;;5020748;28;89386;-59
2021/10/21 14:02:16;;;;;;;;;;;13.70;70.60;;;;;;5021263;28;88930;-59
2021/10/21 14:04:48;;;;;;;;;;;13.70;70.10;;;;;;5026270;28;87749;-59
2021/10/21 14:07:14;;;;;;;;;;;13.70;70.30;;;;;;5020754;28;87163;-60
2021/10/21 14:09:40;;;;;;;;;;;13.70;70.60;;;;;;5020460;28;89536;-63
2021/10/21 14:12:06;;;;;;;;;;;13.80;70.20;;;;;;5020467;28;89272;-63
2021/10/21 14:14:32;;;;;;;;;;;13.80;70.70;;;;;;5020699;28;87204;-58
2021/10/21 14:16:57;;;;;;;;;;;13.80;70.30;;;;;;5022270;28;89023;-59
2021/10/21 14:19:23;;;;;;;;;;;13.90;70.30;;;;;;5022130;28;87599;-63